Theta, North Carolina
Current Conditions -  °F | °C
As of 4:15 PM on Sunday 23 Nov 2014 (Local Time) from KGEV Reporting Station
Light Rain Light Rain  
Wind Chill: 43°   Ceiling: 200
Heat Index: 45°   Visibility: 2.5mi
Dew Point: 45°   Wind: 5mph
Humidity: 99%   Direction: 140°SE
Pressure: 29.94"   Gusts: NA
Location:  36.4009°N, 81.4072°W
Report Text: KGEV 232115Z AUTO 14004KT 2 1/2SM -RA OVC002 07/07 A2994 RMK AO2 P0001 T00730071
Loading
Personal Weather Stations






























Interactive Weather Map New forecast layout! Learn more

10-Day Weather Forecast

Advertisements
Track Severe Weather on mobile